sensor_id;sensor_type;location;lat;lon;timestamp;P1;durP1;ratioP1;P2;durP2;ratioP2
27833;SDS011;15200;50.570;7.244;2023-07-31T00:00:17;5.70;;;1.98;;
27833;SDS011;15200;50.570;7.244;2023-07-31T00:02:44;4.20;;;2.27;;
27833;SDS011;15200;50.570;7.244;2023-07-31T00:05:11;5.65;;;1.72;;
27833;SDS011;15200;50.570;7.244;2023-07-31T00:07:38;5.47;;;2.17;;
27833;SDS011;15200;50.570;7.244;2023-07-31T00:10:06;4.85;;;1.82;;
27833;SDS011;15200;50.570;7.244;2023-07-31T00:12:33;4.10;;;1.95;;
27833;SDS011;15200;50.570;7.244;2023-07-31T00:15:01;5.92;;;1.90;;
27833;SDS011;15200;50.570;7.244;2023-07-31T00:17:29;2.80;;;1.90;;
27833;SDS011;15200;50.570;7.244;2023-07-31T00:19:56;3.95;;;1.92;;
27833;SDS011;15200;50.570;7.244;2023-07-31T00:22:23;4.20;;;2.10;;
27833;SDS011;15200;50.570;7.244;2023-07-31T00:24:51;5.62;;;1.95;;
27833;SDS011;15200;50.570;7.244;2023-07-31T00:27:18;2.22;;;1.67;;
27833;SDS011;15200;50.570;7.244;2023-07-31T00:29:45;3.50;;;1.95;;
27833;SDS011;15200;50.570;7.244;2023-07-31T00:32:13;5.78;;;1.75;;
27833;SDS011;15200;50.570;7.244;2023-07-31T00:34:40;4.17;;;2.10;;
27833;SDS011;15200;50.570;7.244;2023-07-31T00:37:07;3.20;;;1.82;;
27833;SDS011;15200;50.570;7.244;2023-07-31T00:39:35;3.67;;;2.08;;
27833;SDS011;15200;50.570;7.244;2023-07-31T00:42:02;6.03;;;2.33;;
27833;SDS011;15200;50.570;7.244;2023-07-31T00:44:30;5.83;;;1.98;;
27833;SDS011;15200;50.570;7.244;2023-07-31T00:46:57;7.25;;;1.85;;
27833;SDS011;15200;50.570;7.244;2023-07-31T00:49:25;5.58;;;1.95;;
27833;SDS011;15200;50.570;7.244;2023-07-31T00:51:53;5.45;;;2.15;;
27833;SDS011;15200;50.570;7.244;2023-07-31T00:54:20;5.50;;;1.90;;
27833;SDS011;15200;50.570;7.244;2023-07-31T00:56:48;3.70;;;1.55;;
27833;SDS011;15200;50.570;7.244;2023-07-31T00:59:17;7.92;;;1.62;;
27833;SDS011;15200;50.570;7.244;2023-07-31T01:01:45;8.75;;;2.12;;
27833;SDS011;15200;50.570;7.244;2023-07-31T01:04:12;2.77;;;1.87;;
27833;SDS011;15200;50.570;7.244;2023-07-31T01:06:41;4.65;;;2.10;;
27833;SDS011;15200;50.570;7.244;2023-07-31T01:09:17;5.05;;;2.17;;
27833;SDS011;15200;50.570;7.244;2023-07-31T01:11:48;4.87;;;2.02;;
27833;SDS011;15200;50.570;7.244;2023-07-31T01:14:16;5.58;;;2.27;;
27833;SDS011;15200;50.570;7.244;2023-07-31T01:16:44;3.83;;;2.12;;
27833;SDS011;15200;50.570;7.244;2023-07-31T01:19:11;7.37;;;2.35;;
27833;SDS011;15200;50.570;7.244;2023-07-31T01:27:13;3.95;;;2.00;;
27833;SDS011;15200;50.570;7.244;2023-07-31T01:29:38;5.05;;;2.27;;
27833;SDS011;15200;50.570;7.244;2023-07-31T01:32:02;4.00;;;2.22;;
27833;SDS011;15200;50.570;7.244;2023-07-31T01:34:30;6.00;;;2.40;;
27833;SDS011;15200;50.570;7.244;2023-07-31T01:36:58;3.72;;;2.30;;
27833;SDS011;15200;50.570;7.244;2023-07-31T01:39:25;3.72;;;2.22;;
27833;SDS011;15200;50.570;7.244;2023-07-31T01:41:53;9.00;;;2.22;;
27833;SDS011;15200;50.570;7.244;2023-07-31T01:44:20;3.87;;;2.40;;
27833;SDS011;15200;50.570;7.244;2023-07-31T01:46:47;5.47;;;2.00;;
27833;SDS011;15200;50.570;7.244;2023-07-31T01:49:15;3.92;;;2.05;;
27833;SDS011;15200;50.570;7.244;2023-07-31T01:51:42;3.33;;;1.87;;
27833;SDS011;15200;50.570;7.244;2023-07-31T01:54:09;4.62;;;2.70;;
27833;SDS011;15200;50.570;7.244;2023-07-31T01:56:37;7.30;;;2.70;;
27833;SDS011;15200;50.570;7.244;2023-07-31T01:59:06;2.58;;;1.87;;
27833;SDS011;15200;50.570;7.244;2023-07-31T02:01:33;5.08;;;2.22;;
27833;SDS011;15200;50.570;7.244;2023-07-31T02:04:01;5.03;;;2.15;;
27833;SDS011;15200;50.570;7.244;2023-07-31T02:06:28;3.30;;;2.42;;
27833;SDS011;15200;50.570;7.244;2023-07-31T02:08:56;3.25;;;1.80;;
27833;SDS011;15200;50.570;7.244;2023-07-31T02:11:23;4.58;;;2.10;;
27833;SDS011;15200;50.570;7.244;2023-07-31T02:13:50;5.60;;;2.37;;
27833;SDS011;15200;50.570;7.244;2023-07-31T02:16:18;3.55;;;2.30;;
27833;SDS011;15200;50.570;7.244;2023-07-31T02:18:45;5.37;;;2.60;;
27833;SDS011;15200;50.570;7.244;2023-07-31T02:21:12;6.83;;;2.70;;
27833;SDS011;15200;50.570;7.244;2023-07-31T02:23:40;6.42;;;2.25;;
27833;SDS011;15200;50.570;7.244;2023-07-31T02:26:07;4.62;;;2.25;;
27833;SDS011;15200;50.570;7.244;2023-07-31T02:28:34;3.92;;;2.10;;
27833;SDS011;15200;50.570;7.244;2023-07-31T02:31:01;2.85;;;2.20;;
27833;SDS011;15200;50.570;7.244;2023-07-31T02:33:29;6.47;;;2.50;;
27833;SDS011;15200;50.570;7.244;2023-07-31T02:35:56;4.65;;;2.45;;
27833;SDS011;15200;50.570;7.244;2023-07-31T02:38:23;6.20;;;2.65;;
27833;SDS011;15200;50.570;7.244;2023-07-31T02:40:51;3.15;;;2.00;;
27833;SDS011;15200;50.570;7.244;2023-07-31T02:43:18;4.10;;;1.98;;
27833;SDS011;15200;50.570;7.244;2023-07-31T02:45:45;4.78;;;2.02;;
27833;SDS011;15200;50.570;7.244;2023-07-31T02:48:13;4.08;;;1.90;;
27833;SDS011;15200;50.570;7.244;2023-07-31T02:50:40;5.37;;;2.45;;
27833;SDS011;15200;50.570;7.244;2023-07-31T02:53:07;2.85;;;1.92;;
27833;SDS011;15200;50.570;7.244;2023-07-31T02:55:34;4.60;;;1.87;;
27833;SDS011;15200;50.570;7.244;2023-07-31T02:58:02;5.28;;;2.17;;
27833;SDS011;15200;50.570;7.244;2023-07-31T03:00:29;5.47;;;2.08;;
27833;SDS011;15200;50.570;7.244;2023-07-31T03:02:57;5.35;;;2.45;;
27833;SDS011;15200;50.570;7.244;2023-07-31T03:05:24;3.70;;;2.02;;
27833;SDS011;15200;50.570;7.244;2023-07-31T03:07:51;5.25;;;2.20;;
27833;SDS011;15200;50.570;7.244;2023-07-31T03:10:19;6.05;;;2.02;;
27833;SDS011;15200;50.570;7.244;2023-07-31T03:12:46;6.47;;;2.42;;
27833;SDS011;15200;50.570;7.244;2023-07-31T03:15:14;5.35;;;2.22;;
27833;SDS011;15200;50.570;7.244;2023-07-31T03:17:41;3.10;;;1.95;;
27833;SDS011;15200;50.570;7.244;2023-07-31T03:20:09;8.43;;;2.30;;
27833;SDS011;15200;50.570;7.244;2023-07-31T03:22:36;4.90;;;2.15;;
27833;SDS011;15200;50.570;7.244;2023-07-31T03:25:04;4.75;;;2.12;;
27833;SDS011;15200;50.570;7.244;2023-07-31T03:27:31;3.20;;;2.05;;
27833;SDS011;15200;50.570;7.244;2023-07-31T03:29:59;4.58;;;2.45;;
27833;SDS011;15200;50.570;7.244;2023-07-31T03:32:27;3.40;;;1.90;;
27833;SDS011;15200;50.570;7.244;2023-07-31T03:34:54;4.05;;;2.08;;
27833;SDS011;15200;50.570;7.244;2023-07-31T03:37:21;3.80;;;1.55;;
27833;SDS011;15200;50.570;7.244;2023-07-31T03:39:49;4.25;;;2.42;;
27833;SDS011;15200;50.570;7.244;2023-07-31T03:42:16;3.77;;;2.17;;
27833;SDS011;15200;50.570;7.244;2023-07-31T03:44:43;6.78;;;2.20;;
27833;SDS011;15200;50.570;7.244;2023-07-31T03:47:11;4.40;;;2.00;;
27833;SDS011;15200;50.570;7.244;2023-07-31T03:49:38;3.65;;;1.77;;
27833;SDS011;15200;50.570;7.244;2023-07-31T03:52:06;4.70;;;2.52;;
27833;SDS011;15200;50.570;7.244;2023-07-31T03:54:33;3.05;;;1.87;;
27833;SDS011;15200;50.570;7.244;2023-07-31T03:57:00;3.30;;;2.08;;
27833;SDS011;15200;50.570;7.244;2023-07-31T03:59:27;4.78;;;2.40;;
27833;SDS011;15200;50.570;7.244;2023-07-31T04:01:55;3.45;;;1.67;;
27833;SDS011;15200;50.570;7.244;2023-07-31T04:04:22;6.00;;;2.25;;
27833;SDS011;15200;50.570;7.244;2023-07-31T04:06:49;5.00;;;2.47;;
27833;SDS011;15200;50.570;7.244;2023-07-31T04:09:17;6.05;;;2.37;;
27833;SDS011;15200;50.570;7.244;2023-07-31T04:11:44;4.22;;;2.22;;
27833;SDS011;15200;50.570;7.244;2023-07-31T04:14:11;5.15;;;1.70;;
27833;SDS011;15200;50.570;7.244;2023-07-31T04:16:39;4.45;;;2.00;;
27833;SDS011;15200;50.570;7.244;2023-07-31T04:19:06;5.00;;;2.10;;
27833;SDS011;15200;50.570;7.244;2023-07-31T04:21:33;4.67;;;2.35;;
27833;SDS011;15200;50.570;7.244;2023-07-31T04:24:00;5.33;;;2.35;;
27833;SDS011;15200;50.570;7.244;2023-07-31T04:26:28;4.05;;;2.12;;
27833;SDS011;15200;50.570;7.244;2023-07-31T04:28:55;5.25;;;2.42;;
27833;SDS011;15200;50.570;7.244;2023-07-31T04:31:22;4.58;;;2.47;;
27833;SDS011;15200;50.570;7.244;2023-07-31T04:33:50;6.03;;;2.50;;
27833;SDS011;15200;50.570;7.244;2023-07-31T04:36:17;8.15;;;2.62;;
27833;SDS011;15200;50.570;7.244;2023-07-31T04:38:44;4.08;;;2.20;;
27833;SDS011;15200;50.570;7.244;2023-07-31T04:41:12;4.90;;;2.17;;
27833;SDS011;15200;50.570;7.244;2023-07-31T04:43:39;4.10;;;2.15;;
27833;SDS011;15200;50.570;7.244;2023-07-31T04:46:07;3.65;;;2.20;;
27833;SDS011;15200;50.570;7.244;2023-07-31T04:48:34;2.75;;;2.02;;
27833;SDS011;15200;50.570;7.244;2023-07-31T04:51:01;6.30;;;2.37;;
27833;SDS011;15200;50.570;7.244;2023-07-31T04:53:31;5.15;;;2.05;;
27833;SDS011;15200;50.570;7.244;2023-07-31T04:55:58;7.85;;;2.45;;
27833;SDS011;15200;50.570;7.244;2023-07-31T04:58:25;5.85;;;2.30;;
27833;SDS011;15200;50.570;7.244;2023-07-31T05:00:52;4.85;;;2.40;;
27833;SDS011;15200;50.570;7.244;2023-07-31T05:03:20;4.20;;;2.60;;
27833;SDS011;15200;50.570;7.244;2023-07-31T05:05:47;3.70;;;2.33;;
27833;SDS011;15200;50.570;7.244;2023-07-31T05:08:14;5.20;;;2.40;;
27833;SDS011;15200;50.570;7.244;2023-07-31T05:10:43;3.60;;;2.33;;
27833;SDS011;15200;50.570;7.244;2023-07-31T05:13:11;5.22;;;2.35;;
27833;SDS011;15200;50.570;7.244;2023-07-31T05:15:38;4.90;;;2.00;;
27833;SDS011;15200;50.570;7.244;2023-07-31T05:18:05;4.30;;;2.25;;
27833;SDS011;15200;50.570;7.244;2023-07-31T05:20:33;5.53;;;2.62;;
27833;SDS011;15200;50.570;7.244;2023-07-31T05:23:00;4.30;;;2.20;;
27833;SDS011;15200;50.570;7.244;2023-07-31T05:25:27;3.55;;;2.22;;
27833;SDS011;15200;50.570;7.244;2023-07-31T05:27:54;2.98;;;2.22;;
27833;SDS011;15200;50.570;7.244;2023-07-31T05:30:22;5.28;;;2.40;;
27833;SDS011;15200;50.570;7.244;2023-07-31T05:32:49;3.02;;;2.08;;
27833;SDS011;15200;50.570;7.244;2023-07-31T05:35:16;5.50;;;2.30;;
27833;SDS011;15200;50.570;7.244;2023-07-31T05:37:44;3.85;;;2.30;;
27833;SDS011;15200;50.570;7.244;2023-07-31T05:40:11;4.30;;;2.55;;
27833;SDS011;15200;50.570;7.244;2023-07-31T05:42:38;5.50;;;2.58;;
27833;SDS011;15200;50.570;7.244;2023-07-31T05:45:06;5.47;;;2.58;;
27833;SDS011;15200;50.570;7.244;2023-07-31T05:47:33;7.00;;;2.70;;
27833;SDS011;15200;50.570;7.244;2023-07-31T05:50:01;3.85;;;2.47;;
27833;SDS011;15200;50.570;7.244;2023-07-31T05:52:28;4.30;;;2.30;;
27833;SDS011;15200;50.570;7.244;2023-07-31T05:54:55;6.08;;;2.55;;
27833;SDS011;15200;50.570;7.244;2023-07-31T05:57:23;4.55;;;2.30;;
27833;SDS011;15200;50.570;7.244;2023-07-31T05:59:50;4.28;;;2.30;;
27833;SDS011;15200;50.570;7.244;2023-07-31T06:02:19;5.62;;;2.52;;
27833;SDS011;15200;50.570;7.244;2023-07-31T06:04:46;5.97;;;2.33;;
27833;SDS011;15200;50.570;7.244;2023-07-31T06:07:14;4.97;;;2.33;;
27833;SDS011;15200;50.570;7.244;2023-07-31T06:09:41;4.58;;;2.47;;
27833;SDS011;15200;50.570;7.244;2023-07-31T06:12:08;4.90;;;1.98;;
27833;SDS011;15200;50.570;7.244;2023-07-31T06:14:36;5.62;;;2.20;;
27833;SDS011;15200;50.570;7.244;2023-07-31T06:17:05;3.08;;;1.95;;
27833;SDS011;15200;50.570;7.244;2023-07-31T06:19:32;5.35;;;2.40;;
27833;SDS011;15200;50.570;7.244;2023-07-31T06:22:00;4.22;;;2.15;;
27833;SDS011;15200;50.570;7.244;2023-07-31T06:24:27;5.80;;;2.10;;
27833;SDS011;15200;50.570;7.244;2023-07-31T06:26:56;3.80;;;2.15;;
27833;SDS011;15200;50.570;7.244;2023-07-31T06:29:23;5.62;;;2.87;;
27833;SDS011;15200;50.570;7.244;2023-07-31T06:31:51;4.20;;;2.27;;
27833;SDS011;15200;50.570;7.244;2023-07-31T06:34:18;4.62;;;2.77;;
27833;SDS011;15200;50.570;7.244;2023-07-31T06:36:45;3.40;;;2.27;;
27833;SDS011;15200;50.570;7.244;2023-07-31T06:39:13;4.15;;;2.55;;
27833;SDS011;15200;50.570;7.244;2023-07-31T06:41:40;4.50;;;2.45;;
27833;SDS011;15200;50.570;7.244;2023-07-31T06:44:07;7.25;;;2.40;;
27833;SDS011;15200;50.570;7.244;2023-07-31T06:46:35;4.85;;;2.30;;
27833;SDS011;15200;50.570;7.244;2023-07-31T06:49:02;4.85;;;2.50;;
27833;SDS011;15200;50.570;7.244;2023-07-31T06:51:29;3.72;;;2.72;;
27833;SDS011;15200;50.570;7.244;2023-07-31T06:53:57;3.58;;;2.17;;
27833;SDS011;15200;50.570;7.244;2023-07-31T06:56:25;2.67;;;2.30;;
27833;SDS011;15200;50.570;7.244;2023-07-31T06:58:52;4.65;;;2.83;;
27833;SDS011;15200;50.570;7.244;2023-07-31T07:01:19;3.77;;;2.25;;
27833;SDS011;15200;50.570;7.244;2023-07-31T07:03:47;4.55;;;2.40;;
27833;SDS011;15200;50.570;7.244;2023-07-31T07:06:16;4.20;;;2.40;;
27833;SDS011;15200;50.570;7.244;2023-07-31T07:08:44;4.67;;;2.60;;
27833;SDS011;15200;50.570;7.244;2023-07-31T07:11:11;4.83;;;2.65;;
27833;SDS011;15200;50.570;7.244;2023-07-31T07:13:38;3.77;;;2.22;;
27833;SDS011;15200;50.570;7.244;2023-07-31T07:16:06;4.95;;;2.37;;
27833;SDS011;15200;50.570;7.244;2023-07-31T07:18:33;6.47;;;2.85;;
27833;SDS011;15200;50.570;7.244;2023-07-31T07:21:00;5.30;;;2.77;;
27833;SDS011;15200;50.570;7.244;2023-07-31T07:23:28;4.67;;;2.62;;
27833;SDS011;15200;50.570;7.244;2023-07-31T07:25:56;5.72;;;2.85;;
27833;SDS011;15200;50.570;7.244;2023-07-31T07:28:23;10.18;;;3.35;;
27833;SDS011;15200;50.570;7.244;2023-07-31T07:30:51;5.33;;;2.80;;
27833;SDS011;15200;50.570;7.244;2023-07-31T07:33:19;5.40;;;2.85;;
27833;SDS011;15200;50.570;7.244;2023-07-31T07:35:47;7.87;;;2.98;;
27833;SDS011;15200;50.570;7.244;2023-07-31T07:38:14;4.03;;;2.33;;
27833;SDS011;15200;50.570;7.244;2023-07-31T07:40:42;7.80;;;3.20;;
27833;SDS011;15200;50.570;7.244;2023-07-31T07:43:09;6.83;;;3.17;;
27833;SDS011;15200;50.570;7.244;2023-07-31T07:45:36;6.80;;;3.00;;
27833;SDS011;15200;50.570;7.244;2023-07-31T07:48:04;8.20;;;2.83;;
27833;SDS011;15200;50.570;7.244;2023-07-31T07:50:31;10.55;;;3.35;;
27833;SDS011;15200;50.570;7.244;2023-07-31T07:52:59;5.40;;;2.95;;
27833;SDS011;15200;50.570;7.244;2023-07-31T07:55:27;3.58;;;2.70;;
27833;SDS011;15200;50.570;7.244;2023-07-31T07:57:54;6.37;;;2.92;;
27833;SDS011;15200;50.570;7.244;2023-07-31T08:00:21;4.15;;;2.62;;
27833;SDS011;15200;50.570;7.244;2023-07-31T08:02:48;4.80;;;2.45;;
27833;SDS011;15200;50.570;7.244;2023-07-31T08:05:16;4.00;;;3.08;;
27833;SDS011;15200;50.570;7.244;2023-07-31T08:07:44;3.33;;;2.45;;
27833;SDS011;15200;50.570;7.244;2023-07-31T08:10:11;4.62;;;2.77;;
27833;SDS011;15200;50.570;7.244;2023-07-31T08:12:38;7.67;;;2.90;;
27833;SDS011;15200;50.570;7.244;2023-07-31T08:15:06;5.83;;;2.67;;
27833;SDS011;15200;50.570;7.244;2023-07-31T08:17:34;4.85;;;2.70;;
27833;SDS011;15200;50.570;7.244;2023-07-31T08:20:01;4.47;;;2.90;;
27833;SDS011;15200;50.570;7.244;2023-07-31T08:22:28;11.90;;;3.35;;
27833;SDS011;15200;50.570;7.244;2023-07-31T08:24:56;9.03;;;3.42;;
27833;SDS011;15200;50.570;7.244;2023-07-31T08:27:23;5.37;;;2.80;;
27833;SDS011;15200;50.570;7.244;2023-07-31T08:29:51;6.80;;;3.50;;
27833;SDS011;15200;50.570;7.244;2023-07-31T08:32:18;7.42;;;3.47;;
27833;SDS011;15200;50.570;7.244;2023-07-31T08:34:46;5.80;;;3.10;;
27833;SDS011;15200;50.570;7.244;2023-07-31T08:37:13;4.33;;;2.75;;
27833;SDS011;15200;50.570;7.244;2023-07-31T08:39:40;5.72;;;3.35;;
27833;SDS011;15200;50.570;7.244;2023-07-31T08:42:08;9.18;;;3.30;;
27833;SDS011;15200;50.570;7.244;2023-07-31T08:44:35;7.42;;;2.77;;
27833;SDS011;15200;50.570;7.244;2023-07-31T08:47:03;8.38;;;3.22;;
27833;SDS011;15200;50.570;7.244;2023-07-31T08:49:31;8.23;;;2.98;;
27833;SDS011;15200;50.570;7.244;2023-07-31T08:51:58;7.20;;;2.75;;
27833;SDS011;15200;50.570;7.244;2023-07-31T08:54:26;5.85;;;3.02;;
27833;SDS011;15200;50.570;7.244;2023-07-31T08:56:55;8.25;;;3.20;;
27833;SDS011;15200;50.570;7.244;2023-07-31T08:59:23;6.97;;;3.22;;
27833;SDS011;15200;50.570;7.244;2023-07-31T09:01:53;6.65;;;3.00;;
27833;SDS011;15200;50.570;7.244;2023-07-31T09:04:20;7.10;;;2.92;;
27833;SDS011;15200;50.570;7.244;2023-07-31T09:06:48;7.10;;;3.30;;
27833;SDS011;15200;50.570;7.244;2023-07-31T09:09:16;6.42;;;2.72;;
27833;SDS011;15200;50.570;7.244;2023-07-31T09:11:43;4.85;;;2.52;;
27833;SDS011;15200;50.570;7.244;2023-07-31T09:14:10;6.17;;;2.75;;
27833;SDS011;15200;50.570;7.244;2023-07-31T09:16:51;7.15;;;3.17;;
27833;SDS011;15200;50.570;7.244;2023-07-31T09:19:07;5.22;;;3.00;;
27833;SDS011;15200;50.570;7.244;2023-07-31T09:21:39;6.67;;;3.25;;
27833;SDS011;15200;50.570;7.244;2023-07-31T09:24:04;5.75;;;3.15;;
27833;SDS011;15200;50.570;7.244;2023-07-31T09:26:35;5.70;;;2.70;;
27833;SDS011;15200;50.570;7.244;2023-07-31T09:29:06;5.28;;;3.00;;
27833;SDS011;15200;50.570;7.244;2023-07-31T09:31:39;4.03;;;2.50;;
27833;SDS011;15200;50.570;7.244;2023-07-31T09:34:07;6.08;;;3.10;;
27833;SDS011;15200;50.570;7.244;2023-07-31T09:36:40;4.05;;;2.65;;
27833;SDS011;15200;50.570;7.244;2023-07-31T09:39:09;8.03;;;3.47;;
27833;SDS011;15200;50.570;7.244;2023-07-31T09:41:38;5.50;;;2.75;;
27833;SDS011;15200;50.570;7.244;2023-07-31T09:44:05;4.40;;;2.80;;
27833;SDS011;15200;50.570;7.244;2023-07-31T09:46:37;5.25;;;2.83;;
27833;SDS011;15200;50.570;7.244;2023-07-31T09:49:11;6.17;;;2.52;;
27833;SDS011;15200;50.570;7.244;2023-07-31T09:51:39;6.28;;;2.90;;
27833;SDS011;15200;50.570;7.244;2023-07-31T09:54:11;4.90;;;2.42;;
27833;SDS011;15200;50.570;7.244;2023-07-31T09:56:43;4.60;;;3.05;;
27833;SDS011;15200;50.570;7.244;2023-07-31T09:59:11;5.37;;;3.12;;
27833;SDS011;15200;50.570;7.244;2023-07-31T10:01:39;4.70;;;2.27;;
27833;SDS011;15200;50.570;7.244;2023-07-31T10:04:12;5.20;;;1.98;;
27833;SDS011;15200;50.570;7.244;2023-07-31T10:06:36;3.37;;;1.85;;
27833;SDS011;15200;50.570;7.244;2023-07-31T10:09:10;2.67;;;1.67;;
27833;SDS011;15200;50.570;7.244;2023-07-31T10:11:34;1.77;;;1.60;;
27833;SDS011;15200;50.570;7.244;2023-07-31T10:14:03;5.08;;;1.82;;
27833;SDS011;15200;50.570;7.244;2023-07-31T10:16:30;4.28;;;1.80;;
27833;SDS011;15200;50.570;7.244;2023-07-31T10:18:58;2.95;;;1.92;;
27833;SDS011;15200;50.570;7.244;2023-07-31T10:21:26;3.15;;;1.80;;
27833;SDS011;15200;50.570;7.244;2023-07-31T10:23:53;3.37;;;1.77;;
27833;SDS011;15200;50.570;7.244;2023-07-31T10:26:21;5.22;;;1.85;;
27833;SDS011;15200;50.570;7.244;2023-07-31T10:28:50;3.62;;;1.45;;
27833;SDS011;15200;50.570;7.244;2023-07-31T10:31:18;7.85;;;1.57;;
27833;SDS011;15200;50.570;7.244;2023-07-31T10:33:46;3.40;;;1.70;;
27833;SDS011;15200;50.570;7.244;2023-07-31T10:36:14;3.67;;;1.62;;
27833;SDS011;15200;50.570;7.244;2023-07-31T10:38:41;2.00;;;1.50;;
27833;SDS011;15200;50.570;7.244;2023-07-31T10:41:09;6.75;;;1.50;;
27833;SDS011;15200;50.570;7.244;2023-07-31T10:43:39;3.45;;;1.40;;
27833;SDS011;15200;50.570;7.244;2023-07-31T10:46:07;3.17;;;1.70;;
27833;SDS011;15200;50.570;7.244;2023-07-31T10:48:35;5.95;;;1.62;;
27833;SDS011;15200;50.570;7.244;2023-07-31T10:51:06;8.20;;;1.80;;
27833;SDS011;15200;50.570;7.244;2023-07-31T10:53:32;2.08;;;1.30;;
27833;SDS011;15200;50.570;7.244;2023-07-31T10:56:00;2.60;;;1.27;;
27833;SDS011;15200;50.570;7.244;2023-07-31T10:58:28;2.70;;;1.50;;
27833;SDS011;15200;50.570;7.244;2023-07-31T11:00:56;1.05;;;0.98;;
27833;SDS011;15200;50.570;7.244;2023-07-31T11:03:25;2.47;;;1.22;;
27833;SDS011;15200;50.570;7.244;2023-07-31T11:05:53;2.90;;;1.30;;
27833;SDS011;15200;50.570;7.244;2023-07-31T11:08:30;3.08;;;1.42;;
27833;SDS011;15200;50.570;7.244;2023-07-31T11:13:30;4.00;;;1.67;;
27833;SDS011;15200;50.570;7.244;2023-07-31T11:15:58;1.92;;;1.20;;
27833;SDS011;15200;50.570;7.244;2023-07-31T11:18:26;2.25;;;1.47;;
27833;SDS011;15200;50.570;7.244;2023-07-31T11:20:53;1.98;;;1.40;;
27833;SDS011;15200;50.570;7.244;2023-07-31T11:23:21;3.25;;;1.20;;
27833;SDS011;15200;50.570;7.244;2023-07-31T11:25:49;3.40;;;1.17;;
27833;SDS011;15200;50.570;7.244;2023-07-31T11:28:17;2.35;;;1.37;;
27833;SDS011;15200;50.570;7.244;2023-07-31T11:30:45;2.77;;;1.12;;
27833;SDS011;15200;50.570;7.244;2023-07-31T11:33:13;2.95;;;1.10;;
27833;SDS011;15200;50.570;7.244;2023-07-31T11:35:48;2.60;;;1.27;;
27833;SDS011;15200;50.570;7.244;2023-07-31T11:38:12;2.58;;;1.10;;
27833;SDS011;15200;50.570;7.244;2023-07-31T11:40:41;2.62;;;0.95;;
27833;SDS011;15200;50.570;7.244;2023-07-31T11:43:09;1.65;;;1.00;;
27833;SDS011;15200;50.570;7.244;2023-07-31T11:45:38;1.30;;;1.07;;
27833;SDS011;15200;50.570;7.244;2023-07-31T11:48:06;1.77;;;1.00;;
27833;SDS011;15200;50.570;7.244;2023-07-31T11:50:34;2.05;;;0.93;;
27833;SDS011;15200;50.570;7.244;2023-07-31T11:53:03;1.62;;;1.00;;
27833;SDS011;15200;50.570;7.244;2023-07-31T11:55:31;1.10;;;0.80;;
27833;SDS011;15200;50.570;7.244;2023-07-31T11:57:58;1.40;;;0.75;;
27833;SDS011;15200;50.570;7.244;2023-07-31T12:00:26;2.05;;;0.95;;
27833;SDS011;15200;50.570;7.244;2023-07-31T12:02:54;2.47;;;0.95;;
27833;SDS011;15200;50.570;7.244;2023-07-31T12:05:22;1.92;;;0.98;;
27833;SDS011;15200;50.570;7.244;2023-07-31T12:07:54;2.37;;;1.30;;
27833;SDS011;15200;50.570;7.244;2023-07-31T12:12:57;2.05;;;1.30;;
27833;SDS011;15200;50.570;7.244;2023-07-31T12:15:34;3.58;;;1.37;;
27833;SDS011;15200;50.570;7.244;2023-07-31T12:18:05;3.87;;;1.55;;
27833;SDS011;15200;50.570;7.244;2023-07-31T12:20:33;3.72;;;1.85;;
27833;SDS011;15200;50.570;7.244;2023-07-31T12:23:00;2.42;;;2.00;;
27833;SDS011;15200;50.570;7.244;2023-07-31T12:25:28;2.20;;;1.77;;
27833;SDS011;15200;50.570;7.244;2023-07-31T12:27:56;3.72;;;2.12;;
27833;SDS011;15200;50.570;7.244;2023-07-31T12:30:27;3.42;;;2.10;;
27833;SDS011;15200;50.570;7.244;2023-07-31T12:32:55;4.37;;;2.37;;
27833;SDS011;15200;50.570;7.244;2023-07-31T12:35:22;3.92;;;2.50;;
27833;SDS011;15200;50.570;7.244;2023-07-31T12:37:50;2.65;;;2.22;;
27833;SDS011;15200;50.570;7.244;2023-07-31T12:40:17;2.90;;;2.27;;
27833;SDS011;15200;50.570;7.244;2023-07-31T12:42:44;4.90;;;2.67;;
27833;SDS011;15200;50.570;7.244;2023-07-31T12:45:12;5.92;;;2.52;;
27833;SDS011;15200;50.570;7.244;2023-07-31T12:47:39;5.22;;;2.55;;
27833;SDS011;15200;50.570;7.244;2023-07-31T12:50:07;4.70;;;2.75;;
27833;SDS011;15200;50.570;7.244;2023-07-31T12:52:34;4.58;;;2.00;;
27833;SDS011;15200;50.570;7.244;2023-07-31T12:55:01;4.75;;;2.90;;
27833;SDS011;15200;50.570;7.244;2023-07-31T12:57:29;3.05;;;2.05;;
27833;SDS011;15200;50.570;7.244;2023-07-31T12:59:56;7.62;;;2.67;;
27833;SDS011;15200;50.570;7.244;2023-07-31T13:02:23;3.47;;;1.98;;
27833;SDS011;15200;50.570;7.244;2023-07-31T13:04:52;2.85;;;2.20;;
27833;SDS011;15200;50.570;7.244;2023-07-31T13:07:20;4.62;;;2.17;;
27833;SDS011;15200;50.570;7.244;2023-07-31T13:09:48;3.75;;;2.15;;
27833;SDS011;15200;50.570;7.244;2023-07-31T13:12:15;4.42;;;1.98;;
27833;SDS011;15200;50.570;7.244;2023-07-31T13:14:42;3.50;;;1.95;;
27833;SDS011;15200;50.570;7.244;2023-07-31T13:17:10;3.10;;;1.80;;
27833;SDS011;15200;50.570;7.244;2023-07-31T13:19:37;2.70;;;1.95;;
27833;SDS011;15200;50.570;7.244;2023-07-31T13:22:04;2.85;;;2.10;;
27833;SDS011;15200;50.570;7.244;2023-07-31T13:24:32;3.95;;;1.87;;
27833;SDS011;15200;50.570;7.244;2023-07-31T13:26:59;4.17;;;1.70;;
27833;SDS011;15200;50.570;7.244;2023-07-31T13:29:26;1.98;;;1.50;;
27833;SDS011;15200;50.570;7.244;2023-07-31T13:31:53;1.98;;;1.62;;
27833;SDS011;15200;50.570;7.244;2023-07-31T13:34:21;3.05;;;1.60;;
27833;SDS011;15200;50.570;7.244;2023-07-31T13:36:48;3.08;;;1.72;;
27833;SDS011;15200;50.570;7.244;2023-07-31T13:39:15;2.22;;;1.70;;
27833;SDS011;15200;50.570;7.244;2023-07-31T13:41:43;1.65;;;1.42;;
27833;SDS011;15200;50.570;7.244;2023-07-31T13:44:10;1.80;;;1.62;;
27833;SDS011;15200;50.570;7.244;2023-07-31T13:46:37;3.25;;;1.32;;
27833;SDS011;15200;50.570;7.244;2023-07-31T13:49:05;1.57;;;1.47;;
27833;SDS011;15200;50.570;7.244;2023-07-31T13:51:32;3.62;;;1.30;;
27833;SDS011;15200;50.570;7.244;2023-07-31T13:53:59;3.42;;;1.52;;
27833;SDS011;15200;50.570;7.244;2023-07-31T13:56:26;1.55;;;1.32;;
27833;SDS011;15200;50.570;7.244;2023-07-31T13:58:54;2.25;;;1.70;;
27833;SDS011;15200;50.570;7.244;2023-07-31T14:01:21;1.40;;;1.10;;
27833;SDS011;15200;50.570;7.244;2023-07-31T14:03:48;3.30;;;1.47;;
27833;SDS011;15200;50.570;7.244;2023-07-31T14:06:16;1.82;;;1.50;;
27833;SDS011;15200;50.570;7.244;2023-07-31T14:08:43;3.67;;;1.50;;
27833;SDS011;15200;50.570;7.244;2023-07-31T14:11:10;3.98;;;1.60;;
27833;SDS011;15200;50.570;7.244;2023-07-31T14:13:38;3.08;;;1.30;;
27833;SDS011;15200;50.570;7.244;2023-07-31T14:16:05;1.90;;;1.12;;
27833;SDS011;15200;50.570;7.244;2023-07-31T14:18:33;1.75;;;1.22;;
27833;SDS011;15200;50.570;7.244;2023-07-31T14:21:00;1.85;;;1.20;;
27833;SDS011;15200;50.570;7.244;2023-07-31T14:23:27;1.92;;;1.20;;
27833;SDS011;15200;50.570;7.244;2023-07-31T14:25:54;1.75;;;1.02;;
27833;SDS011;15200;50.570;7.244;2023-07-31T14:28:22;3.00;;;1.05;;
27833;SDS011;15200;50.570;7.244;2023-07-31T14:30:49;1.75;;;1.30;;
27833;SDS011;15200;50.570;7.244;2023-07-31T14:33:18;2.33;;;1.30;;
27833;SDS011;15200;50.570;7.244;2023-07-31T14:35:45;3.47;;;1.60;;
27833;SDS011;15200;50.570;7.244;2023-07-31T14:38:13;4.35;;;1.20;;
27833;SDS011;15200;50.570;7.244;2023-07-31T14:40:41;1.30;;;1.12;;
27833;SDS011;15200;50.570;7.244;2023-07-31T14:43:08;1.55;;;1.10;;
27833;SDS011;15200;50.570;7.244;2023-07-31T14:45:35;1.22;;;0.90;;
27833;SDS011;15200;50.570;7.244;2023-07-31T14:48:03;2.45;;;1.12;;
27833;SDS011;15200;50.570;7.244;2023-07-31T14:50:30;2.27;;;1.17;;
27833;SDS011;15200;50.570;7.244;2023-07-31T14:52:57;4.00;;;1.60;;
27833;SDS011;15200;50.570;7.244;2023-07-31T14:55:25;1.52;;;1.05;;
27833;SDS011;15200;50.570;7.244;2023-07-31T14:57:53;4.35;;;1.30;;
27833;SDS011;15200;50.570;7.244;2023-07-31T15:00:20;1.60;;;1.40;;